createdAt,value
2023-05-01T00:00:04.826Z,30.12
2023-05-01T00:01:03.091Z,29.04
2023-05-01T00:02:03.149Z,28.74
2023-05-01T00:03:03.312Z,32.47
2023-05-01T00:04:03.297Z,25.85
2023-05-01T00:05:03.338Z,32.65
2023-05-01T00:06:03.256Z,34.93
2023-05-01T00:07:03.304Z,39.70
2023-05-01T00:08:03.327Z,34.42
2023-05-01T00:09:03.400Z,37.35
2023-05-01T00:10:03.413Z,31.26
2023-05-01T00:11:03.422Z,36.18
2023-05-01T00:12:03.449Z,40.43
2023-05-01T00:13:03.487Z,32.65
2023-05-01T00:14:03.499Z,35.58
2023-05-01T00:15:03.572Z,32.87
2023-05-01T00:16:03.606Z,37.27
2023-05-01T00:17:03.634Z,34.95
2023-05-01T00:18:03.738Z,35.80
2023-05-01T00:19:03.663Z,35.70
2023-05-01T00:20:03.694Z,35.57
2023-05-01T00:21:03.772Z,37.81
2023-05-01T00:22:03.747Z,36.77
2023-05-01T00:23:03.781Z,34.92
2023-05-01T00:24:03.794Z,35.27
2023-05-01T00:25:03.829Z,34.71
2023-05-01T00:26:03.894Z,38.21
2023-05-01T00:27:04.872Z,28.62
2023-05-01T00:28:03.923Z,45.19
2023-05-01T00:29:03.959Z,37.17
2023-05-01T00:30:04.363Z,42.58
2023-05-01T00:31:04.038Z,33.06
2023-05-01T00:32:04.150Z,35.73
2023-05-01T00:33:04.148Z,36.28
2023-05-01T00:34:04.168Z,29.71
2023-05-01T00:35:04.208Z,35.46
2023-05-01T00:36:04.193Z,33.46
2023-05-01T00:37:04.242Z,35.33
2023-05-01T00:38:04.275Z,32.13
2023-05-01T00:39:04.296Z,44.93
2023-05-01T00:40:04.328Z,36.42
2023-05-01T00:41:04.340Z,35.54
2023-05-01T00:42:04.414Z,39.35
2023-05-01T00:43:04.434Z,35.99
2023-05-01T00:44:04.439Z,39.11
2023-05-01T00:45:04.508Z,28.57
2023-05-01T00:46:04.529Z,39.89
2023-05-01T00:47:04.564Z,31.75
2023-05-01T00:48:04.622Z,39.88
2023-05-01T00:49:04.617Z,39.57
2023-05-01T00:50:04.665Z,35.51
2023-05-01T00:51:04.688Z,27.48
2023-05-01T00:52:04.736Z,39.07
2023-05-01T00:53:04.765Z,31.41
2023-05-01T00:54:04.787Z,33.01
2023-05-01T00:55:04.818Z,37.40
2023-05-01T00:56:04.864Z,36.94
2023-05-01T00:57:04.935Z,37.19
2023-05-01T00:58:04.999Z,30.17
2023-05-01T00:59:04.980Z,31.94
2023-05-01T01:00:05.865Z,35.22
2023-05-01T01:01:05.122Z,42.81
2023-05-01T01:02:05.083Z,31.26
2023-05-01T01:03:05.196Z,34.08
2023-05-01T01:04:05.195Z,31.15
2023-05-01T01:05:05.257Z,42.98
2023-05-01T01:06:05.340Z,36.02
2023-05-01T01:07:05.272Z,29.13
2023-05-01T01:08:05.297Z,38.44
2023-05-01T01:09:05.314Z,38.20
2023-05-01T01:10:05.387Z,39.55
2023-05-01T01:11:05.404Z,37.97
2023-05-01T01:12:05.440Z,33.52
2023-05-01T01:13:05.518Z,34.41
2023-05-01T01:14:05.515Z,34.33
2023-05-01T01:15:05.539Z,31.62
2023-05-01T01:16:05.608Z,32.14
2023-05-01T01:17:05.687Z,30.11
2023-05-01T01:18:05.724Z,31.24
2023-05-01T01:19:05.757Z,26.67
2023-05-01T01:20:05.726Z,35.90
2023-05-01T01:21:05.791Z,32.91
2023-05-01T01:22:05.830Z,27.00
2023-05-01T01:23:05.828Z,33.80
2023-05-01T01:24:05.910Z,32.56
2023-05-01T01:25:05.930Z,39.75
2023-05-01T01:26:06.029Z,35.20
2023-05-01T01:27:06.014Z,40.77
2023-05-01T01:28:06.066Z,26.59
2023-05-01T01:29:06.083Z,39.70
2023-05-01T01:30:06.148Z,38.31
2023-05-01T01:31:06.244Z,33.47
2023-05-01T01:32:06.245Z,36.13
2023-05-01T01:33:06.350Z,35.30
2023-05-01T01:34:06.290Z,40.05
2023-05-01T01:35:06.345Z,30.00
2023-05-01T01:36:06.385Z,37.75
2023-05-01T01:37:06.913Z,36.58
2023-05-01T01:38:06.515Z,37.14
2023-05-01T01:39:06.499Z,35.60
2023-05-01T01:40:06.519Z,30.80
2023-05-01T01:41:06.576Z,36.00
2023-05-01T01:42:06.624Z,40.84
2023-05-01T01:43:06.637Z,28.88
2023-05-01T01:44:06.681Z,33.97
2023-05-01T01:45:06.764Z,35.18
2023-05-01T01:46:06.777Z,40.14
2023-05-01T01:47:06.835Z,34.64
2023-05-01T01:48:06.839Z,37.05
2023-05-01T01:49:06.875Z,34.36
2023-05-01T01:50:06.928Z,32.27
2023-05-01T01:51:06.966Z,34.17
2023-05-01T01:52:06.991Z,38.52
2023-05-01T01:53:07.040Z,32.76
2023-05-01T01:54:07.065Z,31.97
2023-05-01T01:55:07.121Z,33.98
2023-05-01T01:56:07.152Z,31.28
2023-05-01T01:57:07.186Z,37.07
2023-05-01T01:58:07.235Z,36.21
2023-05-01T01:59:07.274Z,40.38
2023-05-01T02:00:07.287Z,39.35
2023-05-01T02:01:07.324Z,32.31
2023-05-01T02:02:07.434Z,30.95
2023-05-01T02:03:07.464Z,42.47
2023-05-01T02:04:07.518Z,38.10
2023-05-01T02:05:07.489Z,31.73
2023-05-01T02:06:07.708Z,32.75
2023-05-01T02:07:07.596Z,39.23
2023-05-01T02:08:07.644Z,30.96
2023-05-01T02:09:07.682Z,36.50
2023-05-01T02:10:07.694Z,35.90
2023-05-01T02:11:07.750Z,28.90
2023-05-01T02:12:07.768Z,35.88
2023-05-01T02:13:07.807Z,36.63
2023-05-01T02:14:07.859Z,31.05
2023-05-01T02:15:07.900Z,29.22
2023-05-01T02:16:07.990Z,40.18
2023-05-01T02:17:08.060Z,38.83
2023-05-01T02:18:08.070Z,37.34
2023-05-01T02:19:08.044Z,30.37
2023-05-01T02:20:08.082Z,32.44
2023-05-01T02:21:08.180Z,31.98
2023-05-01T02:22:08.237Z,26.38
2023-05-01T02:23:08.213Z,39.77
2023-05-01T02:24:08.261Z,37.34
2023-05-01T02:25:08.290Z,35.06
2023-05-01T02:26:08.334Z,31.76
2023-05-01T02:27:08.400Z,32.52
2023-05-01T02:28:08.416Z,42.91
2023-05-01T02:29:08.486Z,45.60
2023-05-01T02:30:08.511Z,34.03
2023-05-01T02:31:08.634Z,33.38
2023-05-01T02:32:08.662Z,31.33
2023-05-01T02:33:08.685Z,31.76
2023-05-01T02:34:08.693Z,40.41
2023-05-01T02:35:08.716Z,38.45
2023-05-01T02:36:08.775Z,40.22
2023-05-01T02:37:08.834Z,40.60
2023-05-01T02:38:08.841Z,34.67
2023-05-01T02:39:08.879Z,32.12
2023-05-01T02:40:08.949Z,33.94
2023-05-01T02:41:09.000Z,34.89
2023-05-01T02:42:09.024Z,32.88
2023-05-01T02:43:09.058Z,38.95
2023-05-01T02:44:09.122Z,35.17
2023-05-01T02:45:09.165Z,35.64
2023-05-01T02:46:09.224Z,28.51
2023-05-01T02:47:09.281Z,27.70
2023-05-01T02:48:09.340Z,32.90
2023-05-01T02:49:09.358Z,40.36
2023-05-01T02:50:09.352Z,39.89
2023-05-01T02:51:09.382Z,32.43
2023-05-01T02:52:09.438Z,42.54
2023-05-01T02:53:09.460Z,31.50
2023-05-01T02:54:09.530Z,46.18
2023-05-01T02:55:09.561Z,42.89
2023-05-01T02:56:09.616Z,40.56
2023-05-01T02:57:09.680Z,39.14
2023-05-01T02:58:09.720Z,32.49
2023-05-01T02:59:09.728Z,36.30
2023-05-01T03:00:09.797Z,39.56
2023-05-01T03:01:09.931Z,40.89
2023-05-01T03:02:09.878Z,34.88
2023-05-01T03:03:09.961Z,26.39
2023-05-01T03:04:10.063Z,37.71
2023-05-01T03:05:10.043Z,36.23
2023-05-01T03:06:10.098Z,36.74
2023-05-01T03:07:10.102Z,38.35
2023-05-01T03:08:10.151Z,46.59
2023-05-01T03:09:10.210Z,43.48
2023-05-01T03:10:10.225Z,38.43
2023-05-01T03:11:10.285Z,38.78
2023-05-01T03:12:10.348Z,32.57
2023-05-01T03:13:10.363Z,36.40
2023-05-01T03:14:10.400Z,39.04
2023-05-01T03:15:10.467Z,35.11
2023-05-01T03:16:10.545Z,33.33
2023-05-01T03:17:10.534Z,42.61
2023-05-01T03:18:10.624Z,34.81
2023-05-01T03:19:10.627Z,39.22
2023-05-01T03:20:10.690Z,33.61
2023-05-01T03:21:10.694Z,40.26
2023-05-01T03:22:10.749Z,36.19
2023-05-01T03:23:10.775Z,34.04
2023-05-01T03:24:10.847Z,30.09
2023-05-01T03:25:10.858Z,27.38
2023-05-01T03:26:10.916Z,31.31
2023-05-01T03:27:10.999Z,31.88
2023-05-01T03:28:10.964Z,32.12
2023-05-01T03:29:11.014Z,38.11
2023-05-01T03:30:11.084Z,35.39
2023-05-01T03:31:11.128Z,33.71
2023-05-01T03:32:11.497Z,36.00
2023-05-01T03:33:11.278Z,38.86
2023-05-01T03:34:11.259Z,32.89
2023-05-01T03:35:11.345Z,38.59
2023-05-01T03:36:11.342Z,30.05
2023-05-01T03:37:11.413Z,43.08
2023-05-01T03:38:11.472Z,37.68
2023-05-01T03:39:11.478Z,26.52
2023-05-01T03:40:11.499Z,40.25
2023-05-01T03:41:11.549Z,25.97
2023-05-01T03:42:11.570Z,32.91
2023-05-01T03:43:11.601Z,38.90
2023-05-01T03:44:11.656Z,36.87
2023-05-01T03:45:11.691Z,38.25
2023-05-01T03:46:11.763Z,37.92
2023-05-01T03:47:11.773Z,35.43
2023-05-01T03:48:11.923Z,36.33
2023-05-01T03:49:11.870Z,31.23
2023-05-01T03:50:11.882Z,39.48
2023-05-01T03:51:11.953Z,40.94
2023-05-01T03:52:11.978Z,34.38
2023-05-01T03:53:12.046Z,30.12
2023-05-01T03:54:12.065Z,32.96
2023-05-01T03:55:12.105Z,38.88
2023-05-01T03:56:12.234Z,40.92
2023-05-01T03:57:12.228Z,35.97
2023-05-01T03:58:12.245Z,41.64
2023-05-01T03:59:12.304Z,38.35
2023-05-01T04:00:12.338Z,37.58
2023-05-01T04:01:12.371Z,37.75
2023-05-01T04:02:12.462Z,31.14
2023-05-01T04:03:12.541Z,29.95
2023-05-01T04:04:12.620Z,31.92
2023-05-01T04:05:12.522Z,37.90
2023-05-01T04:06:12.604Z,32.69
2023-05-01T04:07:13.514Z,31.83
2023-05-01T04:08:12.628Z,28.84
2023-05-01T04:09:12.702Z,37.91
2023-05-01T04:10:12.750Z,33.91
2023-05-01T04:11:12.799Z,35.46
2023-05-01T04:12:12.975Z,32.68
2023-05-01T04:13:12.888Z,39.94
2023-05-01T04:14:12.920Z,42.01
2023-05-01T04:15:15.321Z,35.68
2023-05-01T04:16:13.193Z,39.24
2023-05-01T04:17:13.292Z,40.76
2023-05-01T04:18:13.294Z,25.52
2023-05-01T04:19:13.298Z,31.40
2023-05-01T04:20:13.331Z,29.43
2023-05-01T04:21:13.348Z,36.92
2023-05-01T04:22:13.409Z,31.51
2023-05-01T04:23:13.484Z,35.23
2023-05-01T04:24:13.494Z,31.32
2023-05-01T04:25:13.591Z,36.38
2023-05-01T04:26:13.640Z,41.57
2023-05-01T04:27:13.631Z,34.66
2023-05-01T04:28:13.692Z,37.51
2023-05-01T04:29:13.723Z,32.09
2023-05-01T04:30:13.733Z,30.14
2023-05-01T04:31:13.873Z,36.20
2023-05-01T04:32:13.839Z,41.14
2023-05-01T04:33:13.859Z,39.22
2023-05-01T04:34:13.934Z,38.20
2023-05-01T04:35:13.979Z,36.00
2023-05-01T04:36:14.061Z,37.47
2023-05-01T04:37:14.034Z,33.81
2023-05-01T04:38:14.090Z,27.01
2023-05-01T04:39:14.131Z,33.08
2023-05-01T04:40:14.220Z,26.96
2023-05-01T04:41:14.236Z,38.62
2023-05-01T04:42:14.251Z,29.69
2023-05-01T04:43:14.274Z,28.80
2023-05-01T04:44:14.344Z,30.81
2023-05-01T04:45:14.376Z,36.16
2023-05-01T04:46:14.478Z,34.24
2023-05-01T04:47:14.483Z,33.35
2023-05-01T04:48:14.605Z,30.91
2023-05-01T04:49:14.570Z,32.80
2023-05-01T04:50:14.602Z,31.15
2023-05-01T04:51:14.654Z,29.67
2023-05-01T04:52:14.673Z,25.00
2023-05-01T04:53:14.724Z,29.36
2023-05-01T04:54:14.808Z,35.55
2023-05-01T04:55:14.818Z,31.50
2023-05-01T04:56:14.888Z,27.86
2023-05-01T04:57:14.979Z,31.75
2023-05-01T04:58:14.949Z,29.24
2023-05-01T04:59:15.018Z,35.57
2023-05-01T05:00:15.046Z,32.13
2023-05-01T05:01:15.124Z,31.31
2023-05-01T05:02:15.223Z,33.29
2023-05-01T05:03:15.355Z,26.65
2023-05-01T05:04:15.221Z,29.14
2023-05-01T05:05:15.301Z,37.28
2023-05-01T05:06:15.425Z,34.17
2023-05-01T05:07:15.374Z,36.89
2023-05-01T05:08:15.434Z,39.62
2023-05-01T05:09:16.907Z,31.24
2023-05-01T05:10:15.458Z,37.43
2023-05-01T05:11:15.475Z,38.65
2023-05-01T05:12:15.478Z,30.95
2023-05-01T05:13:15.427Z,33.62
2023-05-01T05:14:15.407Z,27.36
2023-05-01T05:15:15.422Z,41.21
2023-05-01T05:16:15.462Z,33.56
2023-05-01T05:17:15.410Z,36.71
2023-05-01T05:18:15.488Z,39.35
2023-05-01T05:19:15.409Z,39.55
2023-05-01T05:20:15.419Z,33.83
2023-05-01T05:21:15.460Z,40.51
2023-05-01T05:22:15.422Z,33.33
2023-05-01T05:23:15.383Z,32.91
2023-05-01T05:24:15.383Z,35.24
2023-05-01T05:25:15.408Z,35.05
2023-05-01T05:26:15.323Z,28.03
2023-05-01T05:27:15.349Z,30.36
2023-05-01T05:28:15.343Z,33.45
2023-05-01T05:29:15.398Z,33.62
2023-05-01T05:30:15.317Z,34.71
2023-05-01T05:31:15.336Z,32.53
2023-05-01T05:32:15.348Z,32.25
2023-05-01T05:33:15.410Z,39.50
2023-05-01T05:34:15.327Z,37.56
2023-05-01T05:35:15.301Z,39.04
2023-05-01T05:36:15.314Z,31.74
2023-05-01T05:37:15.389Z,26.91
2023-05-01T05:38:15.281Z,36.10
2023-05-01T05:39:15.293Z,31.91
2023-05-01T05:40:15.303Z,33.75
2023-05-01T05:41:15.248Z,33.95
2023-05-01T05:42:15.251Z,30.92
2023-05-01T05:43:15.242Z,30.88
2023-05-01T05:44:15.233Z,34.56
2023-05-01T05:45:15.214Z,31.46
2023-05-01T05:46:15.279Z,30.36
2023-05-01T05:47:15.256Z,38.99
2023-05-01T05:48:15.302Z,36.03
2023-05-01T05:49:15.230Z,29.24
2023-05-01T05:50:15.278Z,36.61
2023-05-01T05:51:15.268Z,33.00
2023-05-01T05:52:15.386Z,33.19
2023-05-01T05:53:15.379Z,35.35
2023-05-01T05:54:15.434Z,33.07
2023-05-01T05:55:15.449Z,40.85
2023-05-01T05:56:15.515Z,28.77
2023-05-01T05:57:15.548Z,36.50
2023-05-01T05:58:15.563Z,31.67
2023-05-01T05:59:17.420Z,26.21
2023-05-01T06:00:15.651Z,27.47
2023-05-01T06:01:15.739Z,26.40
2023-05-01T06:02:15.821Z,30.60
2023-05-01T06:03:15.921Z,29.04
2023-05-01T06:04:15.834Z,27.32
2023-05-01T06:05:15.994Z,37.72
2023-05-01T06:06:15.972Z,26.46
2023-05-01T06:07:15.991Z,28.58
2023-05-01T06:08:16.033Z,36.61
2023-05-01T06:09:16.089Z,29.94
2023-05-01T06:10:16.084Z,27.17
2023-05-01T06:11:16.162Z,33.25
2023-05-01T06:12:16.267Z,28.09
2023-05-01T06:13:16.262Z,31.53
2023-05-01T06:14:16.324Z,33.27
2023-05-01T06:15:16.345Z,38.09
2023-05-01T06:16:16.389Z,30.75
2023-05-01T06:17:16.470Z,36.54
2023-05-01T06:18:16.532Z,28.01
2023-05-01T06:19:16.529Z,31.72
2023-05-01T06:20:16.592Z,31.05
2023-05-01T06:21:16.616Z,35.83
2023-05-01T06:22:16.641Z,30.52
2023-05-01T06:23:16.694Z,35.60
2023-05-01T06:24:16.734Z,39.45
2023-05-01T06:25:16.760Z,28.61
2023-05-01T06:26:16.804Z,27.81
2023-05-01T06:27:18.547Z,35.34
2023-05-01T06:28:16.889Z,40.37
2023-05-01T06:29:16.956Z,38.45
2023-05-01T06:30:16.989Z,40.15
2023-05-01T06:31:17.123Z,31.01
2023-05-01T06:32:17.059Z,30.62
2023-05-01T06:33:17.167Z,29.16
2023-05-01T06:34:17.102Z,35.52
2023-05-01T06:35:17.185Z,35.93
2023-05-01T06:36:17.187Z,28.54
2023-05-01T06:37:17.247Z,35.96
2023-05-01T06:38:17.271Z,34.29
2023-05-01T06:39:17.296Z,34.40
2023-05-01T06:40:17.307Z,29.97
2023-05-01T06:41:17.337Z,28.24
2023-05-01T06:42:17.400Z,31.68
2023-05-01T06:43:17.480Z,34.39
2023-05-01T06:44:17.482Z,35.31
2023-05-01T06:45:17.521Z,32.30
2023-05-01T06:46:17.669Z,32.09
2023-05-01T06:47:17.627Z,27.83
2023-05-01T06:48:17.716Z,36.80
2023-05-01T06:49:17.690Z,32.75
2023-05-01T06:50:17.755Z,38.17
2023-05-01T06:51:17.769Z,31.45
2023-05-01T06:52:17.799Z,28.61
2023-05-01T06:53:17.866Z,33.29
2023-05-01T06:54:17.882Z,36.11
2023-05-01T06:55:17.942Z,29.02
2023-05-01T06:56:18.024Z,32.46
2023-05-01T06:57:17.990Z,27.24
2023-05-01T06:58:24.072Z,34.06
2023-05-01T06:59:19.049Z,34.44
2023-05-01T07:00:18.011Z,34.52
2023-05-01T07:01:18.030Z,31.60
2023-05-01T07:02:18.099Z,34.95
2023-05-01T07:03:18.054Z,27.50
2023-05-01T07:04:18.031Z,34.36
2023-05-01T07:05:17.981Z,33.63
2023-05-01T07:06:18.004Z,34.14
2023-05-01T07:07:17.986Z,35.71
2023-05-01T07:08:17.990Z,41.86
2023-05-01T07:09:17.975Z,32.37
2023-05-01T07:10:17.977Z,31.61
2023-05-01T07:11:17.938Z,36.29
2023-05-01T07:12:17.989Z,40.43
2023-05-01T07:13:17.991Z,38.50
2023-05-01T07:14:18.009Z,28.39
2023-05-01T07:15:18.052Z,37.45
2023-05-01T07:16:18.192Z,37.60
2023-05-01T07:17:18.153Z,36.24
2023-05-01T07:18:18.215Z,28.70
2023-05-01T07:19:18.210Z,36.70
2023-05-01T07:20:18.235Z,29.62
2023-05-01T07:21:18.280Z,31.93
2023-05-01T07:22:18.304Z,40.35
2023-05-01T07:23:18.388Z,37.89
2023-05-01T07:24:18.390Z,40.11
2023-05-01T07:25:18.430Z,32.76
2023-05-01T07:26:18.494Z,35.10
2023-05-01T07:27:18.512Z,30.49
2023-05-01T07:28:18.505Z,29.94
2023-05-01T07:29:18.538Z,35.25
2023-05-01T07:30:18.574Z,33.59
2023-05-01T07:31:18.660Z,38.50
2023-05-01T07:32:19.122Z,35.42
2023-05-01T07:33:18.750Z,33.11
2023-05-01T07:34:18.678Z,40.46
2023-05-01T07:35:18.708Z,41.03
2023-05-01T07:36:18.761Z,28.10
2023-05-01T07:37:18.857Z,39.34
2023-05-01T07:38:18.821Z,29.89
2023-05-01T07:39:18.834Z,32.19
2023-05-01T07:40:18.867Z,33.13
2023-05-01T07:41:18.888Z,33.64
2023-05-01T07:42:18.929Z,25.62
2023-05-01T07:43:18.990Z,38.13
2023-05-01T07:44:19.011Z,37.09
2023-05-01T07:45:19.033Z,34.31
2023-05-01T07:46:19.113Z,26.29
2023-05-01T07:47:19.137Z,31.44
2023-05-01T07:48:19.146Z,31.03
2023-05-01T07:49:19.176Z,29.60
2023-05-01T07:50:19.186Z,38.61
2023-05-01T07:51:19.245Z,27.00
2023-05-01T07:52:19.278Z,28.58
2023-05-01T07:53:19.299Z,43.55
2023-05-01T07:54:19.328Z,39.23
2023-05-01T07:55:19.412Z,34.76
2023-05-01T07:56:19.389Z,33.69
2023-05-01T07:57:19.429Z,37.51
2023-05-01T07:58:19.460Z,37.14
2023-05-01T07:59:19.531Z,32.53
2023-05-01T08:00:19.533Z,37.03
2023-05-01T08:01:19.558Z,43.51
2023-05-01T08:02:19.673Z,34.62
2023-05-01T08:03:20.033Z,30.14
2023-05-01T08:04:19.754Z,39.26
2023-05-01T08:05:19.712Z,34.70
2023-05-01T08:06:19.819Z,35.08
2023-05-01T08:07:19.801Z,28.87
2023-05-01T08:08:19.784Z,33.50
2023-05-01T08:09:19.828Z,34.18
2023-05-01T08:10:19.872Z,37.54
2023-05-01T08:11:19.872Z,37.36
2023-05-01T08:12:19.944Z,36.27
2023-05-01T08:13:19.932Z,36.67
2023-05-01T08:14:19.993Z,40.93
2023-05-01T08:15:19.973Z,35.09
2023-05-01T08:16:21.989Z,42.03
2023-05-01T08:17:20.087Z,34.27
2023-05-01T08:18:20.059Z,36.05
2023-05-01T08:19:20.088Z,26.03
2023-05-01T08:20:20.161Z,30.18
2023-05-01T08:21:20.218Z,32.52
2023-05-01T08:22:20.232Z,39.94
2023-05-01T08:23:20.314Z,36.57
2023-05-01T08:24:20.333Z,31.08
2023-05-01T08:25:20.345Z,28.92
2023-05-01T08:26:22.464Z,35.31
2023-05-01T08:27:20.450Z,36.35
2023-05-01T08:28:20.442Z,35.66
2023-05-01T08:29:20.490Z,39.55
2023-05-01T08:30:20.539Z,37.07
2023-05-01T08:31:20.598Z,32.80
2023-05-01T08:32:20.592Z,27.06
2023-05-01T08:33:20.640Z,26.83
2023-05-01T08:34:20.669Z,37.35
2023-05-01T08:35:20.717Z,31.68
2023-05-01T08:36:21.399Z,42.20
2023-05-01T08:37:20.783Z,38.26
2023-05-01T08:38:20.808Z,36.94
2023-05-01T08:39:20.864Z,32.09
2023-05-01T08:40:20.934Z,29.14
2023-05-01T08:41:20.960Z,36.56
2023-05-01T08:42:20.983Z,32.88
2023-05-01T08:43:21.000Z,30.55
2023-05-01T08:44:21.074Z,35.34
2023-05-01T08:45:21.087Z,30.05
2023-05-01T08:46:21.156Z,33.12
2023-05-01T08:47:21.248Z,28.12
2023-05-01T08:48:21.189Z,38.62
2023-05-01T08:49:21.267Z,33.19
2023-05-01T08:50:21.284Z,36.36
2023-05-01T08:51:21.380Z,27.84
2023-05-01T08:52:21.452Z,29.56
2023-05-01T08:53:21.389Z,32.24
2023-05-01T08:54:21.449Z,34.32
2023-05-01T08:55:21.477Z,30.68
2023-05-01T08:56:21.502Z,32.11
2023-05-01T08:57:21.585Z,36.13
2023-05-01T08:58:21.581Z,29.55
2023-05-01T08:59:21.607Z,35.90
2023-05-01T09:00:21.693Z,33.28
2023-05-01T09:01:21.833Z,31.93
2023-05-01T09:02:22.271Z,35.88
2023-05-01T09:03:21.834Z,34.03
2023-05-01T09:04:21.917Z,37.78
2023-05-01T09:05:21.824Z,29.87
2023-05-01T09:06:21.915Z,35.00
2023-05-01T09:07:21.899Z,31.59
2023-05-01T09:08:21.928Z,28.60
2023-05-01T09:09:21.900Z,38.73
2023-05-01T09:10:21.963Z,32.41
2023-05-01T09:11:21.972Z,33.82
2023-05-01T09:12:22.014Z,30.03
2023-05-01T09:13:22.010Z,31.59
2023-05-01T09:14:22.032Z,36.17
2023-05-01T09:15:22.042Z,31.97
2023-05-01T09:16:22.152Z,32.03
2023-05-01T09:17:22.135Z,32.01
2023-05-01T09:18:22.125Z,28.01
2023-05-01T09:19:22.118Z,32.10
2023-05-01T09:20:22.158Z,31.30
2023-05-01T09:21:22.154Z,28.77
2023-05-01T09:22:22.199Z,29.63
2023-05-01T09:23:22.218Z,27.70
2023-05-01T09:24:22.225Z,28.06
2023-05-01T09:25:22.259Z,28.45
2023-05-01T09:26:22.265Z,33.30
2023-05-01T09:27:22.280Z,29.22
2023-05-01T09:28:22.298Z,35.77
2023-05-01T09:29:22.333Z,29.20
2023-05-01T09:30:22.357Z,30.70
2023-05-01T09:31:22.380Z,29.88
2023-05-01T09:32:22.474Z,30.66
2023-05-01T09:33:22.474Z,31.77
2023-05-01T09:34:22.458Z,27.88
2023-05-01T09:35:22.438Z,31.96
2023-05-01T09:36:22.468Z,27.28
2023-05-01T09:37:22.456Z,28.96
2023-05-01T09:38:22.490Z,27.37
2023-05-01T09:39:22.499Z,29.54
2023-05-01T09:40:22.519Z,29.81
2023-05-01T09:41:22.543Z,26.92
2023-05-01T09:42:22.558Z,27.29
2023-05-01T09:43:22.592Z,28.96
2023-05-01T09:44:22.609Z,32.10
2023-05-01T09:45:22.622Z,29.59
2023-05-01T09:46:22.692Z,28.33
2023-05-01T09:47:22.732Z,28.60
2023-05-01T09:48:22.669Z,28.95
2023-05-01T09:49:22.641Z,31.39
2023-05-01T09:50:22.709Z,29.57
2023-05-01T09:51:22.699Z,25.99
2023-05-01T09:52:22.685Z,29.73
2023-05-01T09:53:23.647Z,30.12
2023-05-01T09:54:22.753Z,29.44
2023-05-01T09:55:24.103Z,29.36
2023-05-01T09:56:22.868Z,28.72
2023-05-01T09:57:22.874Z,29.38
2023-05-01T09:58:22.912Z,28.70
2023-05-01T09:59:22.870Z,31.44
2023-05-01T10:00:22.873Z,32.08
2023-05-01T10:01:22.935Z,26.41
2023-05-01T10:02:22.952Z,25.92
2023-05-01T10:03:23.001Z,27.69
2023-05-01T10:04:22.994Z,29.65
2023-05-01T10:05:22.941Z,27.79
2023-05-01T10:06:23.012Z,31.92
2023-05-01T10:07:22.977Z,28.24
2023-05-01T10:08:22.981Z,28.53
2023-05-01T10:09:22.977Z,26.58
2023-05-01T10:10:23.024Z,29.43
2023-05-01T10:11:23.054Z,28.45
2023-05-01T10:12:23.044Z,27.59
2023-05-01T10:13:23.090Z,29.25
2023-05-01T10:14:23.064Z,28.46
2023-05-01T10:15:25.651Z,33.69
2023-05-01T10:16:23.074Z,34.31
2023-05-01T10:17:23.152Z,32.14
2023-05-01T10:18:23.072Z,25.44
2023-05-01T10:19:23.047Z,27.79
2023-05-01T10:20:23.040Z,29.71
2023-05-01T10:21:23.019Z,29.13
2023-05-01T10:22:23.043Z,28.14
2023-05-01T10:23:23.018Z,30.20
2023-05-01T10:24:23.027Z,30.56
2023-05-01T10:25:22.997Z,28.53
2023-05-01T10:26:23.027Z,29.31
2023-05-01T10:27:22.989Z,30.51
2023-05-01T10:28:22.999Z,29.67
2023-05-01T10:29:22.980Z,29.26
2023-05-01T10:30:22.970Z,29.42
2023-05-01T10:31:23.018Z,31.54
2023-05-01T10:32:22.967Z,32.33
2023-05-01T10:33:22.983Z,31.41
2023-05-01T10:34:22.960Z,29.45
2023-05-01T10:35:22.937Z,31.86
2023-05-01T10:36:22.973Z,33.63
2023-05-01T10:37:22.917Z,30.25
2023-05-01T10:38:22.923Z,32.66
2023-05-01T10:39:22.957Z,30.23
2023-05-01T10:40:22.900Z,32.68
2023-05-01T10:41:22.887Z,33.25
2023-05-01T10:42:22.907Z,30.95
2023-05-01T10:43:22.879Z,38.01
2023-05-01T10:44:22.889Z,30.69
2023-05-01T10:45:22.903Z,32.44
2023-05-01T10:46:22.912Z,30.20
2023-05-01T10:47:22.915Z,30.61
2023-05-01T10:48:22.856Z,31.87
2023-05-01T10:49:22.848Z,33.54
2023-05-01T10:50:22.850Z,31.35
2023-05-01T10:51:25.708Z,32.95
2023-05-01T10:52:22.831Z,33.28
2023-05-01T10:53:22.851Z,33.23
2023-05-01T10:54:22.818Z,30.20
2023-05-01T10:55:22.822Z,32.32
2023-05-01T10:56:22.800Z,31.61
2023-05-01T10:57:22.824Z,31.84
2023-05-01T10:58:22.800Z,29.32
2023-05-01T10:59:22.807Z,30.58
2023-05-01T11:00:22.773Z,33.16
2023-05-01T11:01:22.831Z,32.68
2023-05-01T11:02:22.991Z,50.07
2023-05-01T11:03:22.795Z,56.51
2023-05-01T11:04:22.794Z,56.98
2023-05-01T11:05:35.753Z,33.63
2023-05-01T11:06:23.826Z,33.80
2023-05-01T11:07:22.862Z,33.95
2023-05-01T11:08:22.746Z,36.07
2023-05-01T11:09:22.741Z,39.19
2023-05-01T11:10:22.742Z,40.18
2023-05-01T11:11:22.787Z,45.09
2023-05-01T11:12:22.797Z,42.30
2023-05-01T11:13:23.201Z,42.37
2023-05-01T11:14:22.684Z,49.40
2023-05-01T11:15:22.716Z,45.30
2023-05-01T11:16:22.718Z,47.87
2023-05-01T11:17:22.699Z,49.62
2023-05-01T11:18:22.700Z,48.25
2023-05-01T11:19:22.700Z,49.26
2023-05-01T11:20:22.682Z,54.00
2023-05-01T11:21:22.658Z,52.88
2023-05-01T11:22:22.671Z,54.59
2023-05-01T11:23:22.683Z,58.69
2023-05-01T11:24:22.674Z,58.13
2023-05-01T11:25:22.671Z,52.10
2023-05-01T11:26:22.640Z,58.86
2023-05-01T11:27:22.619Z,57.84
2023-05-01T11:28:22.708Z,58.43
2023-05-01T11:29:22.649Z,62.53
2023-05-01T11:30:22.624Z,57.77
2023-05-01T11:31:22.739Z,56.51
2023-05-01T11:32:22.717Z,63.16
2023-05-01T11:33:23.012Z,65.97
2023-05-01T11:34:22.694Z,56.94
2023-05-01T11:35:22.728Z,58.14
2023-05-01T11:36:22.707Z,57.39
2023-05-01T11:37:22.759Z,61.94
2023-05-01T11:38:23.208Z,62.82
2023-05-01T11:39:22.738Z,62.66
2023-05-01T11:40:22.761Z,64.05
2023-05-01T11:41:22.770Z,61.04
2023-05-01T11:42:22.850Z,63.35
2023-05-01T11:43:22.815Z,70.51
2023-05-01T11:44:22.828Z,61.13
2023-05-01T11:45:22.833Z,59.45
2023-05-01T11:46:22.894Z,61.07
2023-05-01T11:47:22.890Z,66.18
2023-05-01T11:48:23.030Z,60.99
2023-05-01T11:49:22.909Z,59.40
2023-05-01T11:50:22.949Z,57.84
2023-05-01T11:51:22.962Z,66.48
2023-05-01T11:52:22.978Z,59.70
2023-05-01T11:53:22.957Z,57.84
2023-05-01T11:54:23.011Z,55.62
2023-05-01T11:55:23.010Z,57.49
2023-05-01T11:56:26.459Z,60.98
2023-05-01T11:57:23.018Z,61.05
2023-05-01T11:58:23.038Z,55.35
2023-05-01T11:59:23.013Z,60.62
2023-05-01T12:00:23.013Z,60.61
2023-05-01T12:01:23.009Z,57.84
2023-05-01T12:02:23.064Z,59.88
2023-05-01T12:03:23.264Z,61.15
2023-05-01T12:04:23.078Z,58.91
2023-05-01T12:05:22.957Z,56.40
2023-05-01T12:06:23.026Z,58.84
2023-05-01T12:07:22.990Z,58.95
2023-05-01T12:08:22.968Z,61.80
2023-05-01T12:09:22.934Z,58.41
2023-05-01T12:10:22.917Z,65.09
2023-05-01T12:11:22.978Z,59.03
2023-05-01T12:12:22.927Z,61.09
2023-05-01T12:13:22.917Z,65.44
2023-05-01T12:14:22.916Z,64.84
2023-05-01T12:15:22.903Z,60.49
2023-05-01T12:16:22.922Z,61.78
2023-05-01T12:17:22.989Z,60.56
2023-05-01T12:18:23.008Z,65.20
2023-05-01T12:19:23.924Z,59.51
2023-05-01T12:20:22.896Z,57.72
2023-05-01T12:21:22.845Z,63.01
2023-05-01T12:22:22.852Z,58.56
2023-05-01T12:23:22.857Z,63.27
2023-05-01T12:24:22.838Z,60.89
2023-05-01T12:25:22.867Z,57.42
2023-05-01T12:26:22.844Z,62.38
2023-05-01T12:27:22.867Z,58.20
2023-05-01T12:28:22.840Z,57.88
2023-05-01T12:29:22.819Z,57.34
2023-05-01T12:30:22.842Z,65.29
2023-05-01T12:31:22.851Z,57.27
2023-05-01T12:32:22.929Z,60.92
2023-05-01T12:33:22.794Z,58.73
2023-05-01T12:34:22.782Z,59.34
2023-05-01T12:35:22.787Z,58.13
2023-05-01T12:36:22.752Z,61.30
2023-05-01T12:37:22.771Z,55.77
2023-05-01T12:38:22.806Z,56.72
2023-05-01T12:39:22.762Z,55.46
2023-05-01T12:40:22.731Z,57.04
2023-05-01T12:41:22.754Z,64.97
2023-05-01T12:42:22.727Z,55.35
2023-05-01T12:43:22.759Z,57.59
2023-05-01T12:44:22.724Z,55.19
2023-05-01T12:45:22.715Z,61.14
2023-05-01T12:46:22.721Z,61.13
2023-05-01T12:47:22.701Z,63.33
2023-05-01T12:48:22.676Z,53.88
2023-05-01T12:49:22.679Z,55.22
2023-05-01T12:50:22.724Z,52.35
2023-05-01T12:51:22.752Z,52.83
2023-05-01T12:52:22.737Z,58.16